createdAt,value
2023-02-01T00:13:10.439Z,68.50
2023-02-01T00:15:38.947Z,67.40
2023-02-01T00:18:07.334Z,67.28
2023-02-01T00:20:35.970Z,67.35
2023-02-01T00:23:04.262Z,67.25
2023-02-01T00:25:32.875Z,67.35
2023-02-01T00:28:02.049Z,67.44
2023-02-01T00:30:30.935Z,67.53
2023-02-01T00:32:59.216Z,67.61
2023-02-01T00:35:29.611Z,67.80
2023-02-01T00:38:00.290Z,67.88
2023-02-01T00:40:28.856Z,67.93
2023-02-01T00:42:58.964Z,68.09
2023-02-01T00:45:27.359Z,68.15
2023-02-01T00:47:56.370Z,68.30
2023-02-01T00:50:24.793Z,68.52
2023-02-01T00:52:53.858Z,68.54
2023-02-01T00:55:25.276Z,68.43
2023-02-01T00:57:53.855Z,68.51
2023-02-01T01:00:22.520Z,68.44
2023-02-01T01:02:51.232Z,68.51
2023-02-01T01:05:19.969Z,68.53
2023-02-01T01:07:48.223Z,68.60
2023-02-01T01:10:17.188Z,68.61
2023-02-01T01:12:45.467Z,68.54
2023-02-01T01:15:13.683Z,68.51
2023-02-01T01:17:42.272Z,68.52
2023-02-01T01:20:11.395Z,68.45
2023-02-01T01:22:40.008Z,68.58
2023-02-01T01:25:08.491Z,68.57
2023-02-01T01:27:37.275Z,68.72
2023-02-01T01:30:06.484Z,68.81
2023-02-01T01:32:34.751Z,68.93
2023-02-01T01:35:03.233Z,68.93
2023-02-01T01:37:32.840Z,68.86
2023-02-01T01:40:01.516Z,68.81
2023-02-01T01:42:30.078Z,68.80
2023-02-01T01:45:00.010Z,68.77
2023-02-01T01:47:33.421Z,68.84
2023-02-01T01:50:02.655Z,68.85
2023-02-01T01:52:32.334Z,68.88
2023-02-01T01:55:00.935Z,68.76
2023-02-01T01:57:33.077Z,68.73
2023-02-01T02:00:04.646Z,68.63
2023-02-01T02:03:08.445Z,68.71
2023-02-01T02:05:36.722Z,68.81
2023-02-01T02:08:05.411Z,68.89
2023-02-01T02:10:53.252Z,68.97
2023-02-01T02:13:21.833Z,69.21
2023-02-01T02:16:14.518Z,69.26
2023-02-01T02:19:07.743Z,69.08
2023-02-01T02:21:42.161Z,68.92
2023-02-01T02:24:48.530Z,68.94
2023-02-01T02:27:25.639Z,69.00
2023-02-01T02:30:07.511Z,68.91
2023-02-01T02:32:48.894Z,68.84
2023-02-01T02:35:32.331Z,68.90
2023-02-01T02:38:13.606Z,68.91
2023-02-01T02:41:40.060Z,68.97
2023-02-01T02:44:50.497Z,68.93
2023-02-01T02:47:42.455Z,68.96
2023-02-01T02:50:38.116Z,68.84
2023-02-01T02:53:41.565Z,68.81
2023-02-01T02:56:28.890Z,68.79
2023-02-01T02:59:16.315Z,68.63
2023-02-01T03:02:04.754Z,68.62
2023-02-01T03:04:33.450Z,68.57
2023-02-01T03:07:15.798Z,68.61
2023-02-01T03:09:45.364Z,68.57
2023-02-01T03:12:32.381Z,68.46
2023-02-01T03:15:08.392Z,68.47
2023-02-01T03:17:39.429Z,68.52
2023-02-01T03:20:08.831Z,68.51
2023-02-01T03:22:36.979Z,68.54
2023-02-01T03:25:10.967Z,68.57
2023-02-01T03:27:46.550Z,68.49
2023-02-01T03:30:18.971Z,68.37
2023-02-01T03:33:00.312Z,68.37
2023-02-01T03:36:11.253Z,68.33
2023-02-01T03:39:04.619Z,68.24
2023-02-01T03:41:50.102Z,68.10
2023-02-01T03:55:43.644Z,67.59
2023-02-01T03:58:16.670Z,66.31
2023-02-01T04:00:46.141Z,66.04
2023-02-01T04:03:14.256Z,66.06
2023-02-01T04:05:42.473Z,65.93
2023-02-01T04:08:12.028Z,66.08
2023-02-01T04:10:45.937Z,66.19
2023-02-01T04:13:15.651Z,66.29
2023-02-01T04:15:44.332Z,66.61
2023-02-01T04:18:12.362Z,66.72
2023-02-01T04:20:40.792Z,66.63
2023-02-01T04:23:09.170Z,66.72
2023-02-01T04:25:37.489Z,66.89
2023-02-01T04:28:06.173Z,66.98
2023-02-01T04:30:35.009Z,67.03
2023-02-01T04:33:06.378Z,67.08
2023-02-01T04:35:35.264Z,67.19
2023-02-01T04:38:04.571Z,67.13
2023-02-01T04:40:34.681Z,67.08
2023-02-01T04:43:04.801Z,67.01
2023-02-01T04:45:33.090Z,67.02
2023-02-01T04:48:05.387Z,66.92
2023-02-01T04:50:33.625Z,66.82
2023-02-01T04:53:01.696Z,66.88
2023-02-01T04:55:31.861Z,66.77
2023-02-01T04:58:00.614Z,66.90
2023-02-01T05:00:29.192Z,66.93
2023-02-01T05:02:57.596Z,67.04
2023-02-01T05:05:27.435Z,66.91
2023-02-01T05:07:55.905Z,67.03
2023-02-01T05:10:24.380Z,67.06
2023-02-01T05:13:11.771Z,67.27
2023-02-01T05:15:40.205Z,67.20
2023-02-01T05:18:08.832Z,67.21
2023-02-01T05:20:38.238Z,67.12
2023-02-01T05:23:07.026Z,67.22
2023-02-01T05:25:35.407Z,67.23
2023-02-01T05:28:04.216Z,67.36
2023-02-01T05:30:36.424Z,67.54
2023-02-01T05:33:04.832Z,67.46
2023-02-01T05:35:34.250Z,67.51
2023-02-01T05:38:04.468Z,67.54
2023-02-01T05:40:34.233Z,67.59
2023-02-01T05:43:02.401Z,67.57
2023-02-01T05:45:30.938Z,67.66
2023-02-01T05:47:59.526Z,67.67
2023-02-01T05:51:29.611Z,67.86
2023-02-01T05:53:58.247Z,67.48
2023-02-01T05:56:28.636Z,67.21
2023-02-01T05:58:57.111Z,67.29
2023-02-01T06:01:25.794Z,67.21
2023-02-01T06:03:54.554Z,67.38
2023-02-01T06:06:22.889Z,67.51
2023-02-01T06:08:51.550Z,67.37
2023-02-01T06:11:31.741Z,67.23
2023-02-01T06:14:01.739Z,67.33
2023-02-01T06:16:30.063Z,67.39
2023-02-01T06:18:59.413Z,67.49
2023-02-01T06:21:28.195Z,67.45
2023-02-01T06:23:58.763Z,67.40
2023-02-01T06:26:29.602Z,67.40
2023-02-01T06:28:58.391Z,67.41
2023-02-01T06:31:26.900Z,67.44
2023-02-01T06:33:55.715Z,67.50
2023-02-01T06:36:25.013Z,67.55
2023-02-01T06:38:57.740Z,67.53
2023-02-01T06:41:29.259Z,67.49
2023-02-01T06:43:58.037Z,67.50
2023-02-01T06:46:26.424Z,67.40
2023-02-01T06:48:55.523Z,67.48
2023-02-01T06:51:26.359Z,67.37
2023-02-01T06:53:54.694Z,67.30
2023-02-01T06:56:23.107Z,67.09
2023-02-01T06:58:51.487Z,67.14
2023-02-01T07:01:19.962Z,67.17
2023-02-01T07:03:52.268Z,67.08
2023-02-01T07:06:20.832Z,67.08
2023-02-01T07:08:50.424Z,67.01
2023-02-01T07:11:19.671Z,67.04
2023-02-01T07:13:47.868Z,67.05
2023-02-01T07:16:18.580Z,67.04
2023-02-01T07:18:47.000Z,67.04
2023-02-01T07:21:15.309Z,67.05
2023-02-01T07:23:44.083Z,66.90
2023-02-01T07:26:14.663Z,66.60
2023-02-01T07:28:43.423Z,66.45
2023-02-01T07:31:19.995Z,66.43
2023-02-01T07:33:54.012Z,65.86
2023-02-01T07:36:22.250Z,65.55
2023-02-01T07:38:51.965Z,65.34
2023-02-01T07:41:20.279Z,65.10
2023-02-01T07:43:51.905Z,65.07
2023-02-01T07:46:20.080Z,65.03
2023-02-01T07:48:48.456Z,64.88
2023-02-01T07:55:18.388Z,64.58
2023-02-01T07:57:46.841Z,64.16
2023-02-01T08:00:34.517Z,63.71
2023-02-01T08:03:04.824Z,63.42
2023-02-01T08:05:32.990Z,63.30
2023-02-01T08:08:02.140Z,63.05
2023-02-01T08:10:31.295Z,62.79
2023-02-01T08:13:01.111Z,62.55
2023-02-01T08:15:30.407Z,62.38
2023-02-01T08:17:59.600Z,62.39
2023-02-01T08:20:28.495Z,62.36
2023-02-01T08:22:57.391Z,62.41
2023-02-01T08:25:25.775Z,62.27
2023-02-01T08:27:55.581Z,62.06
2023-02-01T08:30:24.173Z,61.99
2023-02-01T08:32:52.643Z,61.69
2023-02-01T08:35:25.776Z,61.58
2023-02-01T08:37:58.926Z,61.78
2023-02-01T08:40:27.517Z,61.72
2023-02-01T08:42:58.136Z,61.01
2023-02-01T08:45:27.359Z,60.36
2023-02-01T08:47:58.922Z,60.12
2023-02-01T08:50:27.556Z,60.46
2023-02-01T08:53:00.478Z,60.59
2023-02-01T09:06:17.959Z,58.18
2023-02-01T09:08:52.392Z,57.54
2023-02-01T09:11:21.113Z,57.78
2023-02-01T09:13:50.485Z,58.31
2023-02-01T09:16:19.011Z,58.63
2023-02-01T09:18:56.017Z,58.50
2023-02-01T09:21:36.083Z,58.53
2023-02-01T09:24:05.278Z,58.24
2023-02-01T09:26:35.582Z,57.98
2023-02-01T09:29:04.705Z,57.76
2023-02-01T09:31:33.974Z,58.21
2023-02-01T09:34:02.348Z,58.20
2023-02-01T09:36:31.339Z,58.03
2023-02-01T09:39:00.021Z,57.10
2023-02-01T09:41:49.950Z,55.76
2023-02-01T09:44:18.173Z,54.65
2023-02-01T09:46:46.698Z,54.05
2023-02-01T09:49:18.071Z,53.77
2023-02-01T09:51:47.758Z,53.84
2023-02-01T09:54:27.863Z,53.78
2023-02-01T09:57:08.178Z,53.80
2023-02-01T09:59:42.401Z,53.51
2023-02-01T10:02:17.472Z,53.41
2023-02-01T10:04:45.526Z,53.50
2023-02-01T10:07:56.064Z,53.03
2023-02-01T10:10:31.160Z,53.63
2023-02-01T10:13:20.271Z,54.12
2023-02-01T10:15:54.238Z,54.61
2023-02-01T10:18:43.439Z,54.86
2023-02-01T10:21:40.113Z,55.24
2023-02-01T10:24:38.778Z,55.51
2023-02-01T10:27:13.864Z,56.04
2023-02-01T10:29:47.200Z,56.43
2023-02-01T10:32:18.591Z,56.43
2023-02-01T10:34:55.940Z,56.25
2023-02-01T10:37:25.752Z,56.10
2023-02-01T10:39:56.388Z,55.39
2023-02-01T10:42:28.245Z,55.22
2023-02-01T10:44:58.772Z,55.51
2023-02-01T10:47:27.156Z,55.55
2023-02-01T10:50:08.123Z,55.24
2023-02-01T10:53:01.433Z,55.02
2023-02-01T10:55:36.116Z,55.37
2023-02-01T10:58:06.846Z,55.71
2023-02-01T11:00:43.623Z,56.50
2023-02-01T11:03:27.993Z,57.04
2023-02-01T11:46:49.110Z,62.78
2023-02-01T11:52:21.148Z,63.03
2023-02-01T11:54:59.683Z,62.81
2023-02-01T11:57:47.905Z,62.91
2023-02-01T12:00:33.724Z,62.92
2023-02-01T12:03:06.661Z,62.79
2023-02-01T12:05:40.926Z,62.71
2023-02-01T12:08:47.476Z,62.52
2023-02-01T12:11:20.261Z,62.88
2023-02-01T12:14:34.896Z,63.33
2023-02-01T12:17:31.359Z,63.64
2023-02-01T12:20:06.180Z,63.93
2023-02-01T12:22:39.417Z,63.92
2023-02-01T12:25:43.190Z,64.06
2023-02-01T12:28:36.651Z,64.06
2023-02-01T12:31:42.344Z,64.44
2023-02-01T12:34:35.560Z,64.74
2023-02-01T12:37:22.479Z,64.67
2023-02-01T12:40:23.247Z,64.75
2023-02-01T12:43:16.144Z,64.87
2023-02-01T12:45:48.051Z,65.09
2023-02-01T12:48:19.220Z,65.25
2023-02-01T12:50:53.495Z,65.32
2023-02-01T12:53:28.513Z,65.16
2023-02-01T12:55:59.848Z,65.13
2023-02-01T12:58:31.971Z,65.14
2023-02-01T13:01:10.106Z,65.17
2023-02-01T13:03:53.997Z,65.26
2023-02-01T13:06:38.962Z,65.80
2023-02-01T13:12:16.214Z,66.70
2023-02-01T13:14:47.564Z,66.28
2023-02-01T13:17:21.271Z,66.23
2023-02-01T13:19:54.107Z,66.15
2023-02-01T13:22:38.089Z,65.97
2023-02-01T13:25:48.185Z,66.07
2023-02-01T13:28:26.723Z,66.12
2023-02-01T13:31:28.851Z,66.26
2023-02-01T13:34:37.516Z,66.63
2023-02-01T13:37:27.811Z,66.83
2023-02-01T13:40:37.455Z,67.06
2023-02-01T13:43:22.340Z,67.25
2023-02-01T13:45:52.447Z,67.43
2023-02-01T13:48:35.360Z,67.52
2023-02-01T13:51:06.301Z,67.55
2023-02-01T13:53:38.467Z,67.77
2023-02-01T13:56:15.807Z,67.82
2023-02-01T13:58:44.958Z,67.94
2023-02-01T14:01:22.711Z,67.99
2023-02-01T14:04:02.080Z,68.10
2023-02-01T14:06:36.390Z,68.32
2023-02-01T14:09:13.239Z,68.52
2023-02-01T14:11:52.006Z,68.74
2023-02-01T14:14:20.281Z,68.65
2023-02-01T14:16:55.084Z,68.54
2023-02-01T14:19:27.895Z,68.43
2023-02-01T14:22:02.829Z,68.65
2023-02-01T14:24:34.897Z,68.79
2023-02-01T14:40:54.943Z,68.31
2023-02-01T14:43:52.163Z,67.37
2023-02-01T14:46:19.938Z,67.35
2023-02-01T14:48:47.659Z,67.51
2023-02-01T14:51:15.595Z,67.74
2023-02-01T14:53:44.109Z,67.89
2023-02-01T14:56:16.861Z,67.98
2023-02-01T14:58:58.760Z,68.08
2023-02-01T15:01:31.395Z,68.10
2023-02-01T15:04:06.061Z,68.24
2023-02-01T15:06:36.041Z,68.60
2023-02-01T15:09:21.156Z,68.70
2023-02-01T15:12:01.831Z,68.66
2023-02-01T15:14:52.115Z,68.53
2023-02-01T15:17:20.717Z,68.81
2023-02-01T15:20:15.919Z,68.90
2023-02-01T15:22:56.806Z,69.18
2023-02-01T15:25:30.303Z,69.30
2023-02-01T15:27:57.840Z,69.32
2023-02-01T15:30:26.830Z,69.54
2023-02-01T15:33:07.220Z,69.59
2023-02-01T15:35:46.013Z,69.54
2023-02-01T15:38:31.286Z,69.60
2023-02-01T15:41:14.546Z,69.64
2023-02-01T15:43:54.112Z,69.61
2023-02-01T15:46:36.393Z,69.80
2023-02-01T15:49:03.173Z,69.96
2023-02-01T15:51:32.959Z,69.88
2023-02-01T15:54:05.176Z,70.00
2023-02-01T15:56:34.999Z,69.97
2023-02-01T15:59:03.691Z,69.99
2023-02-01T16:01:30.906Z,69.84
2023-02-01T16:04:17.646Z,69.65
2023-02-01T16:07:32.616Z,69.76
2023-02-01T16:10:07.442Z,69.81
2023-02-01T16:12:47.557Z,69.97
2023-02-01T16:15:14.797Z,69.92
2023-02-01T16:17:44.094Z,69.95
2023-02-01T16:20:12.950Z,69.91
2023-02-01T16:22:39.802Z,69.80
2023-02-01T16:25:07.304Z,69.86
2023-02-01T16:27:34.292Z,69.86
2023-02-01T16:30:01.344Z,70.05
2023-02-01T16:32:28.596Z,69.82
2023-02-01T16:34:57.298Z,69.72
2023-02-01T16:37:25.147Z,69.65
2023-02-01T16:39:51.999Z,69.68
2023-02-01T16:42:19.040Z,69.90
2023-02-01T16:44:46.101Z,69.95
2023-02-01T16:47:23.577Z,70.08
2023-02-01T16:49:50.758Z,70.22
2023-02-01T16:52:19.439Z,70.28
2023-02-01T16:54:47.246Z,70.33
2023-02-01T16:57:15.439Z,70.29
2023-02-01T16:59:43.017Z,70.17
2023-02-01T17:02:21.437Z,70.07
2023-02-01T17:04:49.327Z,70.29
2023-02-01T17:07:17.820Z,70.36
2023-02-01T17:09:45.994Z,70.35
2023-02-01T17:12:34.646Z,70.45
2023-02-01T17:15:01.593Z,70.47
2023-02-01T17:17:39.577Z,70.62
2023-02-01T17:20:21.739Z,70.68
2023-02-01T17:22:49.219Z,70.73
2023-02-01T17:25:17.498Z,70.76
2023-02-01T17:27:47.515Z,70.70
2023-02-01T17:30:14.671Z,70.79
2023-02-01T17:32:42.188Z,70.78
2023-02-01T17:35:20.595Z,70.82
2023-02-01T17:37:47.801Z,70.93
2023-02-01T17:40:15.245Z,71.04
2023-02-01T17:42:42.257Z,70.99
2023-02-01T17:45:35.974Z,70.86
2023-02-01T17:48:06.907Z,70.75
2023-02-01T17:50:37.473Z,70.88
2023-02-01T17:53:07.758Z,70.86
2023-02-01T17:55:36.269Z,71.00
2023-02-01T17:58:03.327Z,70.98
2023-02-01T18:00:31.983Z,71.02
2023-02-01T18:03:00.049Z,70.97
2023-02-01T18:05:31.400Z,70.86
2023-02-01T18:07:58.668Z,70.94
2023-02-01T18:10:25.430Z,70.93
2023-02-01T18:12:52.340Z,70.60
2023-02-01T18:15:22.113Z,70.56
2023-02-01T18:17:49.514Z,70.57
2023-02-01T18:20:19.866Z,70.62
2023-02-01T18:22:50.051Z,70.68
2023-02-01T18:25:20.144Z,70.61
2023-02-01T18:27:48.286Z,70.80
2023-02-01T18:30:18.771Z,71.05
2023-02-01T18:32:45.923Z,71.10
2023-02-01T18:35:18.591Z,71.15
2023-02-01T18:37:47.155Z,71.19
2023-02-01T18:40:21.412Z,71.11
2023-02-01T18:42:48.405Z,71.06
2023-02-01T18:45:31.575Z,70.93
2023-02-01T18:47:59.440Z,70.99
2023-02-01T18:50:28.247Z,71.16
2023-02-01T18:52:56.011Z,71.22
2023-02-01T18:55:23.575Z,71.33
2023-02-01T18:57:50.890Z,71.37
2023-02-01T19:00:18.780Z,71.47
2023-02-01T19:02:46.205Z,71.37
2023-02-01T19:05:14.374Z,71.25
2023-02-01T19:07:42.207Z,71.21
2023-02-01T19:10:21.702Z,71.06
2023-02-01T19:12:52.557Z,70.96
2023-02-01T19:15:19.483Z,70.86
2023-02-01T19:17:48.105Z,70.75
2023-02-01T19:20:18.098Z,70.76
2023-02-01T19:22:46.170Z,70.78
2023-02-01T19:25:18.478Z,70.83
2023-02-01T19:27:45.551Z,70.83
2023-02-01T19:30:13.560Z,70.75
2023-02-01T19:32:41.380Z,70.68
2023-02-01T19:35:09.640Z,70.69
2023-02-01T19:37:36.365Z,70.73
2023-02-01T19:40:03.866Z,70.76
2023-02-01T19:42:31.173Z,70.82
2023-02-01T19:57:16.798Z,70.22
2023-02-01T19:59:44.877Z,68.95
2023-02-01T20:02:15.563Z,68.81
2023-02-01T20:04:44.669Z,68.83
2023-02-01T20:07:13.348Z,68.95
2023-02-01T20:09:42.042Z,68.91
2023-02-01T20:12:11.333Z,68.90
2023-02-01T20:14:39.512Z,68.99
2023-02-01T20:17:12.503Z,69.03
2023-02-01T20:19:40.883Z,69.11
2023-02-01T20:22:09.783Z,69.14
2023-02-01T20:24:38.912Z,69.22
2023-02-01T20:27:10.211Z,69.37
2023-02-01T20:29:38.336Z,69.55
2023-02-01T20:32:06.686Z,69.61
2023-02-01T20:34:34.891Z,69.49
2023-02-01T20:37:03.479Z,69.50
2023-02-01T20:39:31.858Z,69.56
2023-02-01T20:42:00.455Z,69.50
2023-02-01T20:44:29.190Z,69.58
2023-02-01T20:46:59.050Z,69.55
2023-02-01T20:49:27.428Z,69.66
2023-02-01T20:51:58.065Z,69.66
2023-02-01T20:54:28.664Z,69.72
2023-02-01T20:56:56.786Z,69.74
2023-02-01T20:59:27.003Z,69.80
2023-02-01T21:01:55.477Z,69.74
2023-02-01T21:04:27.522Z,69.63
2023-02-01T21:06:56.745Z,69.71
2023-02-01T21:09:25.324Z,69.56
2023-02-01T21:11:53.527Z,69.56
2023-02-01T21:14:22.515Z,69.63
2023-02-01T21:16:51.386Z,69.66
2023-02-01T21:19:20.527Z,69.76
2023-02-01T21:21:48.974Z,69.82
2023-02-01T21:24:17.347Z,69.90
2023-02-01T21:26:45.897Z,69.78
2023-02-01T21:29:15.230Z,69.89
2023-02-01T21:31:43.924Z,69.74
2023-02-01T21:34:12.397Z,69.65
2023-02-01T21:36:40.677Z,69.54
2023-02-01T21:39:10.948Z,69.44
2023-02-01T21:42:15.014Z,69.46
2023-02-01T21:44:46.279Z,69.37
2023-02-01T21:47:18.967Z,69.25
2023-02-01T21:49:49.471Z,69.06
2023-02-01T21:52:18.301Z,69.00
2023-02-01T21:54:46.640Z,68.92
2023-02-01T21:57:15.130Z,68.85
2023-02-01T22:02:29.393Z,69.00
2023-02-01T22:04:57.919Z,68.58
2023-02-01T22:07:26.146Z,68.61
2023-02-01T22:09:54.417Z,68.55
2023-02-01T22:12:23.327Z,68.57
2023-02-01T22:14:51.685Z,68.61
2023-02-01T22:17:24.876Z,68.70
2023-02-01T22:19:53.358Z,68.78
2023-02-01T22:22:21.939Z,68.69
2023-02-01T22:24:50.420Z,68.54
2023-02-01T22:27:18.602Z,68.61
2023-02-01T22:29:46.972Z,68.51
2023-02-01T22:32:16.585Z,68.64
2023-02-01T22:34:44.757Z,68.87
2023-02-01T22:37:13.019Z,68.69
2023-02-01T22:39:43.355Z,68.64
2023-02-01T22:42:11.937Z,68.54
2023-02-01T22:44:41.364Z,68.53
2023-02-01T22:47:09.934Z,68.36
2023-02-01T22:49:38.499Z,68.43
2023-02-01T22:52:07.007Z,68.35
2023-02-01T22:54:35.865Z,68.47
2023-02-01T22:57:03.954Z,68.44
2023-02-01T22:59:32.628Z,68.50
2023-02-01T23:02:00.893Z,68.48
2023-02-01T23:04:29.474Z,68.53
2023-02-01T23:06:58.773Z,68.63
2023-02-01T23:09:27.155Z,68.70
2023-02-01T23:11:55.658Z,68.61
2023-02-01T23:14:28.005Z,68.66
2023-02-01T23:16:56.584Z,68.42
2023-02-01T23:19:24.832Z,68.29
2023-02-01T23:21:53.548Z,68.40
2023-02-01T23:24:22.745Z,68.38
2023-02-01T23:26:50.857Z,68.23
2023-02-01T23:29:19.190Z,68.16
2023-02-01T23:31:47.607Z,67.99
2023-02-01T23:34:16.056Z,67.97
2023-02-01T23:36:44.432Z,68.00
2023-02-01T23:39:12.788Z,67.96
2023-02-01T23:41:41.292Z,67.71
2023-02-01T23:44:10.191Z,67.59
2023-02-01T23:46:40.256Z,67.47
2023-02-01T23:49:10.322Z,67.58
2023-02-01T23:51:39.418Z,67.33
2023-02-01T23:54:08.619Z,67.15
2023-02-01T23:56:41.703Z,67.13
2023-02-01T23:59:20.572Z,67.20
